Time;durP1;ratioP1;P1;durP2;ratioP2;P2;SDS_P1;SDS_P2;PMS_P1;PMS_P2;Temp;Humidity;BMP_temperature;BMP_pressure;BME280_temperature;BME280_humidity;BME280_pressure;Samples;Min_cycle;Max_cycle;Signal;HPM_P1;HPM_P2
2023/10/24 00:01:02;;;;;;;9.53;8.60;;;11.60;99.90;;;;;;5137825;27;20578;-38
2023/10/24 00:03:28;;;;;;;9.87;8.50;;;11.60;99.90;;;;;;5137915;27;20198;-39
2023/10/24 00:05:54;;;;;;;9.97;8.90;;;11.60;99.90;;;;;;5119009;27;20301;-38
2023/10/24 00:08:19;;;;;;;10.13;9.20;;;11.60;99.90;;;;;;5137534;27;20231;-37
2023/10/24 00:10:45;;;;;;;10.57;9.57;;;11.60;99.90;;;;;;5136872;27;20180;-40
2023/10/24 00:13:11;;;;;;;11.27;9.47;;;11.60;99.90;;;;;;5137147;27;20306;-39
2023/10/24 00:15:36;;;;;;;10.40;9.30;;;11.60;99.90;;;;;;5136602;27;20515;-37
2023/10/24 00:18:02;;;;;;;9.47;7.97;;;11.50;99.90;;;;;;5136702;27;20244;-36
2023/10/24 00:20:28;;;;;;;9.30;8.50;;;11.50;99.90;;;;;;5136978;27;20665;-38
2023/10/24 00:22:53;;;;;;;10.17;8.03;;;11.60;99.90;;;;;;5136297;27;20189;-38
2023/10/24 00:25:19;;;;;;;8.90;8.00;;;11.60;99.90;;;;;;5137241;27;20237;-40
2023/10/24 00:27:45;;;;;;;9.80;8.60;;;11.60;99.90;;;;;;5135674;27;20206;-39
2023/10/24 00:30:11;;;;;;;7.80;7.00;;;11.60;99.90;;;;;;5136708;27;20175;-37
2023/10/24 00:32:36;;;;;;;8.87;8.00;;;11.60;99.90;;;;;;5136901;27;20206;-39
2023/10/24 00:35:03;;;;;;;9.27;8.37;;;11.50;99.90;;;;;;5137058;27;20425;-40
2023/10/24 00:37:29;;;;;;;8.60;7.90;;;11.50;99.90;;;;;;5117976;27;20563;-38
2023/10/24 00:39:54;;;;;;;8.50;7.73;;;11.50;99.90;;;;;;5135971;27;20443;-39
2023/10/24 00:42:20;;;;;;;8.10;7.40;;;11.50;99.90;;;;;;5117803;28;20183;-40
2023/10/24 00:44:47;;;;;;;8.63;7.83;;;11.50;99.90;;;;;;5137030;27;20541;-38
2023/10/24 00:47:13;;;;;;;8.00;7.20;;;11.50;99.90;;;;;;5137180;27;20183;-39
2023/10/24 00:49:39;;;;;;;8.57;7.77;;;11.50;99.90;;;;;;5136854;28;20457;-38
2023/10/24 00:52:05;;;;;;;8.53;7.73;;;11.50;99.90;;;;;;5118131;28;20521;-40
2023/10/24 00:54:32;;;;;;;8.40;7.60;;;11.50;99.90;;;;;;5135165;28;20179;-40
2023/10/24 00:56:57;;;;;;;7.87;7.17;;;11.50;99.90;;;;;;5134680;28;20190;-38
2023/10/24 00:59:24;;;;;;;8.43;7.63;;;11.50;99.90;;;;;;5134445;28;20443;-40
2023/10/24 01:01:50;;;;;;;8.53;7.73;;;11.50;99.90;;;;;;5116894;28;20454;-39
2023/10/24 01:04:18;;;;;;;7.90;7.20;;;11.50;99.90;;;;;;5116887;27;20413;-38
2023/10/24 01:06:44;;;;;;;10.40;6.90;;;11.50;99.90;;;;;;5134735;28;20233;-40
2023/10/24 01:09:10;;;;;;;8.77;6.27;;;11.50;99.90;;;;;;5117487;28;20444;-38
2023/10/24 01:11:36;;;;;;;7.47;6.73;;;11.50;99.90;;;;;;5134142;28;20485;-38
2023/10/24 01:14:02;;;;;;;7.40;6.73;;;11.50;99.90;;;;;;5117011;28;20413;-39
2023/10/24 01:16:28;;;;;;;7.70;7.00;;;11.50;99.90;;;;;;5134333;27;20420;-40
2023/10/24 01:18:54;;;;;;;8.17;7.37;;;11.40;99.90;;;;;;5135025;28;20163;-38
2023/10/24 01:21:20;;;;;;;8.70;7.63;;;11.40;99.90;;;;;;5134909;28;20432;-38
2023/10/24 01:23:46;;;;;;;8.40;7.70;;;11.50;99.90;;;;;;5134938;28;20197;-38
2023/10/24 01:26:14;;;;;;;8.53;6.83;;;11.40;99.90;;;;;;5135754;28;20516;-41
2023/10/24 01:28:39;;;;;;;7.83;7.23;;;11.40;99.90;;;;;;5121147;27;20806;-39
2023/10/24 01:31:05;;;;;;;7.83;7.13;;;11.50;99.90;;;;;;5139621;27;20473;-38
2023/10/24 01:33:31;;;;;;;8.17;7.37;;;11.50;99.90;;;;;;5140548;27;20175;-37
2023/10/24 01:35:56;;;;;;;8.20;7.40;;;11.50;99.90;;;;;;5139940;27;20320;-38
2023/10/24 01:38:22;;;;;;;9.17;8.37;;;11.50;99.90;;;;;;5138502;27;20557;-40
2023/10/24 01:40:48;;;;;;;7.90;7.20;;;11.50;99.90;;;;;;5119220;27;20179;-39
2023/10/24 01:43:13;;;;;;;7.67;6.97;;;11.60;99.90;;;;;;5138443;27;20188;-38
2023/10/24 01:45:39;;;;;;;6.97;6.37;;;11.60;99.90;;;;;;5138571;27;20306;-37
2023/10/24 01:48:05;;;;;;;9.47;6.57;;;11.60;99.90;;;;;;5139005;27;20194;-38
2023/10/24 01:50:30;;;;;;;7.63;6.70;;;11.60;99.90;;;;;;5139680;27;20179;-38
2023/10/24 01:52:58;;;;;;;7.50;6.70;;;11.60;99.90;;;;;;5138563;27;20425;-38
2023/10/24 01:55:24;;;;;;;7.70;6.63;;;11.60;99.90;;;;;;5138179;27;20166;-38
2023/10/24 01:57:50;;;;;;;6.93;6.33;;;11.70;99.90;;;;;;5139298;27;20887;-38
2023/10/24 02:00:16;;;;;;;8.00;6.00;;;11.70;99.90;;;;;;5139588;27;20175;-36
2023/10/24 02:02:41;;;;;;;6.47;5.87;;;11.70;99.90;;;;;;5121944;27;20520;-38
2023/10/24 02:05:07;;;;;;;7.10;6.40;;;11.70;99.90;;;;;;5140068;27;20439;-39
2023/10/24 02:07:33;;;;;;;6.33;5.73;;;11.70;99.90;;;;;;5140171;27;20187;-39
2023/10/24 02:09:59;;;;;;;6.90;5.83;;;11.70;99.90;;;;;;5121738;27;20913;-39
2023/10/24 02:12:24;;;;;;;6.63;5.63;;;11.70;99.90;;;;;;5139283;27;20266;-38
2023/10/24 02:14:51;;;;;;;7.47;6.13;;;11.70;99.90;;;;;;5139091;27;20190;-36
2023/10/24 02:17:17;;;;;;;6.63;5.80;;;11.70;99.90;;;;;;5138807;27;20171;-39
2023/10/24 02:19:43;;;;;;;6.70;6.00;;;11.70;99.90;;;;;;5138969;27;20714;-39
2023/10/24 02:22:08;;;;;;;6.23;5.50;;;11.70;99.90;;;;;;5103352;27;20500;-39
2023/10/24 02:24:34;;;;;;;10.03;5.90;;;11.70;99.90;;;;;;5139308;27;20174;-37
2023/10/24 02:27:00;;;;;;;6.87;6.17;;;11.60;99.90;;;;;;5139303;27;20219;-41
2023/10/24 02:29:25;;;;;;;8.37;6.00;;;11.60;99.90;;;;;;5139448;27;20190;-40
2023/10/24 02:31:51;;;;;;;7.70;5.70;;;11.60;99.90;;;;;;5138470;27;20183;-41
2023/10/24 02:34:17;;;;;;;6.13;5.53;;;11.70;99.90;;;;;;5139283;27;20167;-38
2023/10/24 02:36:42;;;;;;;7.13;6.47;;;11.70;99.90;;;;;;5138909;27;20175;-37
2023/10/24 02:39:09;;;;;;;6.50;5.90;;;11.70;99.90;;;;;;5138835;27;20175;-40
2023/10/24 02:41:35;;;;;;;6.40;5.80;;;11.70;99.90;;;;;;5139090;27;20187;-39
2023/10/24 02:44:00;;;;;;;5.60;5.10;;;11.70;99.90;;;;;;5138083;27;20439;-36
2023/10/24 02:46:26;;;;;;;6.23;5.63;;;11.70;99.90;;;;;;5137162;27;20245;-39
2023/10/24 02:48:52;;;;;;;7.60;5.70;;;11.70;99.90;;;;;;5138489;27;20185;-38
2023/10/24 02:51:17;;;;;;;6.43;5.83;;;11.70;99.90;;;;;;5138019;27;20397;-37
2023/10/24 02:53:43;;;;;;;8.00;5.50;;;11.70;99.90;;;;;;5138066;27;20171;-38
2023/10/24 02:56:09;;;;;;;6.10;5.57;;;11.70;99.90;;;;;;5138843;27;20175;-37
2023/10/24 02:58:35;;;;;;;6.10;5.30;;;11.70;99.90;;;;;;5138434;27;20756;-37
2023/10/24 03:01:04;;;;;;;6.43;5.13;;;11.70;99.90;;;;;;5139204;27;20220;-37
2023/10/24 03:03:30;;;;;;;7.37;5.33;;;11.60;99.90;;;;;;5138442;27;20487;-39
2023/10/24 03:05:56;;;;;;;6.03;5.43;;;11.70;99.90;;;;;;5119998;27;20468;-38
2023/10/24 03:08:22;;;;;;;5.30;4.83;;;11.60;99.90;;;;;;5137266;27;20865;-37
2023/10/24 03:10:47;;;;;;;5.00;4.60;;;11.70;99.90;;;;;;5137858;27;20182;-38
2023/10/24 03:13:13;;;;;;;5.20;4.80;;;11.70;99.90;;;;;;5138705;27;20174;-40
2023/10/24 03:15:40;;;;;;;7.37;4.33;;;11.70;99.90;;;;;;5138142;27;20449;-39
2023/10/24 03:18:06;;;;;;;5.30;4.20;;;11.70;99.90;;;;;;5138207;27;20179;-38
2023/10/24 03:20:32;;;;;;;4.83;4.43;;;11.80;99.90;;;;;;5138535;27;20432;-38
2023/10/24 03:22:58;;;;;;;5.33;4.20;;;11.80;99.90;;;;;;5119587;27;20248;-39
2023/10/24 03:25:26;;;;;;;4.43;4.03;;;11.80;99.90;;;;;;5138018;27;20202;-38
2023/10/24 03:27:55;;;;;;;5.03;4.53;;;11.80;99.90;;;;;;5139044;27;20199;-38
2023/10/24 03:30:21;;;;;;;5.00;3.50;;;11.90;99.90;;;;;;5103370;27;20413;-38
2023/10/24 03:32:47;;;;;;;4.53;3.30;;;11.90;99.90;;;;;;5138135;27;20508;-38
2023/10/24 03:35:16;;;;;;;3.90;3.07;;;11.90;99.90;;;;;;5137698;27;20760;-40
2023/10/24 03:37:42;;;;;;;3.93;3.53;;;11.90;99.90;;;;;;5137801;27;20537;-42
2023/10/24 03:40:11;;;;;;;4.40;3.10;;;12.00;99.90;;;;;;5136867;27;20416;-38
2023/10/24 03:42:37;;;;;;;4.97;2.70;;;12.00;99.90;;;;;;5137026;27;20175;-38
2023/10/24 03:45:02;;;;;;;5.60;3.23;;;12.10;99.90;;;;;;5134604;27;20460;-38
2023/10/24 03:47:28;;;;;;;5.80;3.47;;;12.20;99.90;;;;;;5137289;27;20255;-42
2023/10/24 03:49:54;;;;;;;6.17;3.60;;;12.30;53.70;;;;;;5136486;27;20194;-39
2023/10/24 03:52:19;;;;;;;4.53;3.30;;;12.40;35.10;;;;;;5136468;27;20171;-39
2023/10/24 03:54:45;;;;;;;5.03;4.10;;;12.40;23.30;;;;;;5136240;27;20562;-39
2023/10/24 03:57:10;;;;;;;4.50;3.93;;;12.40;18.80;;;;;;5134189;27;20324;-38
2023/10/24 03:59:36;;;;;;;5.43;3.60;;;12.40;27.30;;;;;;5133981;27;20179;-40
2023/10/24 04:02:02;;;;;;;4.77;3.30;;;12.40;35.50;;;;;;5134389;27;20274;-41
2023/10/24 04:04:29;;;;;;;9.37;3.93;;;12.40;42.90;;;;;;5135118;27;20187;-39
2023/10/24 04:06:55;;;;;;;4.00;3.40;;;12.40;51.10;;;;;;5135363;27;20247;-38
2023/10/24 04:09:21;;;;;;;4.00;3.47;;;12.40;71.00;;;;;;5136619;27;20463;-38
2023/10/24 04:11:47;;;;;;;4.03;3.63;;;12.40;99.90;;;;;;5136767;27;20531;-38
2023/10/24 04:14:12;;;;;;;5.87;4.40;;;12.30;99.90;;;;;;5137203;27;20341;-39
2023/10/24 04:16:38;;;;;;;4.57;3.77;;;12.30;99.90;;;;;;5136938;27;20281;-39
2023/10/24 04:19:04;;;;;;;3.50;2.90;;;12.30;99.90;;;;;;5137470;27;20190;-38
2023/10/24 04:21:29;;;;;;;4.17;3.80;;;12.20;99.90;;;;;;5137788;27;20270;-43
2023/10/24 04:23:55;;;;;;;3.70;3.40;;;12.20;99.90;;;;;;5118641;27;20506;-39
2023/10/24 04:26:20;;;;;;;4.50;3.50;;;12.20;99.90;;;;;;5137409;27;20214;-41
2023/10/24 04:28:48;;;;;;;4.00;3.30;;;12.20;99.90;;;;;;5135525;27;20171;-40
2023/10/24 04:31:13;;;;;;;5.93;4.07;;;12.20;99.90;;;;;;5136213;27;20216;-37
2023/10/24 04:33:40;;;;;;;9.13;3.90;;;12.20;99.90;;;;;;5136969;27;20886;-39
2023/10/24 04:36:08;;;;;;;4.33;3.67;;;12.20;99.90;;;;;;5137987;27;20174;-40
2023/10/24 04:38:34;;;;;;;6.33;4.20;;;12.10;99.90;;;;;;5136410;27;20790;-39
2023/10/24 04:41:00;;;;;;;3.90;3.60;;;12.10;99.90;;;;;;5135317;27;20531;-39
2023/10/24 04:43:25;;;;;;;6.10;3.93;;;12.10;99.90;;;;;;5119415;27;20197;-38
2023/10/24 04:45:52;;;;;;;5.20;3.77;;;12.10;99.90;;;;;;5136478;27;20254;-38
2023/10/24 04:48:17;;;;;;;4.40;3.87;;;12.10;99.90;;;;;;5136091;27;20179;-39
2023/10/24 04:50:43;;;;;;;4.33;3.93;;;12.10;99.90;;;;;;5134837;28;20416;-39
2023/10/24 04:53:09;;;;;;;5.53;3.77;;;12.10;99.90;;;;;;5133295;28;20486;-40
2023/10/24 04:55:35;;;;;;;6.00;3.80;;;12.10;99.90;;;;;;5132385;28;20179;-39
2023/10/24 04:58:02;;;;;;;5.03;4.03;;;12.10;99.90;;;;;;5132955;28;20175;-39
2023/10/24 05:00:28;;;;;;;4.50;3.17;;;12.10;99.90;;;;;;5132639;28;20440;-38
2023/10/24 05:02:53;;;;;;;3.87;3.50;;;12.10;99.90;;;;;;5136173;27;20428;-38
2023/10/24 05:05:19;;;;;;;7.13;3.70;;;12.10;99.90;;;;;;5136286;27;20468;-39
2023/10/24 05:07:45;;;;;;;3.83;3.30;;;12.10;99.90;;;;;;5117340;27;20175;-40
2023/10/24 05:10:10;;;;;;;4.87;3.30;;;12.10;99.90;;;;;;5137304;27;20163;-39
2023/10/24 05:12:37;;;;;;;5.63;5.07;;;12.10;99.90;;;;;;5134199;27;20170;-38
2023/10/24 05:15:03;;;;;;;4.93;3.80;;;12.10;99.90;;;;;;5134880;27;20265;-38
2023/10/24 05:17:30;;;;;;;4.30;3.53;;;12.10;99.90;;;;;;5136370;27;20420;-40
2023/10/24 05:19:59;;;;;;;6.30;3.40;;;12.20;99.90;;;;;;5139949;27;20882;-40
2023/10/24 05:22:25;;;;;;;5.37;3.93;;;12.10;99.90;;;;;;5121872;27;20424;-39
2023/10/24 05:24:51;;;;;;;4.97;3.73;;;12.20;99.90;;;;;;5136627;27;20408;-39
2023/10/24 05:27:17;;;;;;;4.13;3.20;;;12.20;99.90;;;;;;5138419;27;20531;-41
2023/10/24 05:29:43;;;;;;;3.93;3.50;;;12.20;99.90;;;;;;5118399;27;20516;-39
2023/10/24 05:32:08;;;;;;;4.73;3.30;;;12.20;99.90;;;;;;5137083;27;20179;-42
2023/10/24 05:34:34;;;;;;;4.80;3.90;;;12.20;99.90;;;;;;5120804;27;20601;-39
2023/10/24 05:37:00;;;;;;;3.83;3.37;;;12.20;99.90;;;;;;5137584;27;20165;-40
2023/10/24 05:39:28;;;;;;;4.97;3.57;;;12.20;99.90;;;;;;5121425;27;20480;-38
2023/10/24 05:41:54;;;;;;;7.33;4.27;;;12.20;99.90;;;;;;5137735;27;20183;-41
2023/10/24 05:44:20;;;;;;;4.90;4.27;;;12.20;99.90;;;;;;5138951;27;20927;-40
2023/10/24 05:46:46;;;;;;;6.27;4.30;;;12.10;99.90;;;;;;5138373;27;20480;-39
2023/10/24 05:49:12;;;;;;;4.60;3.97;;;12.10;99.90;;;;;;5138066;27;20795;-40
2023/10/24 05:51:37;;;;;;;3.77;3.37;;;12.20;99.90;;;;;;5137354;27;20507;-39
2023/10/24 05:54:03;;;;;;;5.87;3.93;;;12.20;99.90;;;;;;5137333;27;20214;-39
2023/10/24 05:56:28;;;;;;;3.80;3.50;;;12.20;99.90;;;;;;5138350;27;20175;-39
2023/10/24 05:58:54;;;;;;;6.63;3.67;;;12.20;99.90;;;;;;5118719;27;20179;-39
2023/10/24 06:01:20;;;;;;;4.90;3.70;;;12.20;99.90;;;;;;5135693;27;20178;-39
2023/10/24 06:03:46;;;;;;;5.07;3.67;;;12.20;99.90;;;;;;5134588;27;20262;-40
2023/10/24 06:06:12;;;;;;;3.37;2.90;;;12.20;99.90;;;;;;5133993;27;20575;-40
2023/10/24 06:08:39;;;;;;;4.30;3.37;;;12.20;99.90;;;;;;5133329;27;20505;-39
2023/10/24 06:11:05;;;;;;;3.57;3.00;;;12.30;99.90;;;;;;5134486;27;20174;-38
2023/10/24 06:13:34;;;;;;;5.07;4.20;;;12.40;99.90;;;;;;5134954;27;20829;-40
2023/10/24 06:16:06;;;;;;;4.30;3.50;;;12.60;99.90;;;;;;5137153;27;20186;-38
2023/10/24 06:18:33;;;;;;;5.40;3.47;;;12.60;99.90;;;;;;5136446;27;20741;-39
2023/10/24 06:20:58;;;;;;;3.80;3.20;;;12.60;99.90;;;;;;5135737;27;20424;-39
2023/10/24 06:23:24;;;;;;;5.70;2.90;;;12.60;99.90;;;;;;5135981;27;20656;-41
2023/10/24 06:25:50;;;;;;;3.67;2.93;;;12.50;99.90;;;;;;5135593;27;20210;-39
2023/10/24 06:28:15;;;;;;;5.00;3.40;;;12.50;99.90;;;;;;5134907;27;20167;-41
2023/10/24 06:30:41;;;;;;;5.93;3.50;;;12.50;99.90;;;;;;5134567;27;20163;-39
2023/10/24 06:33:07;;;;;;;3.47;3.17;;;12.50;99.90;;;;;;5132620;27;20172;-40
2023/10/24 06:35:32;;;;;;;3.63;2.70;;;12.50;99.90;;;;;;5134000;27;20668;-40
2023/10/24 06:37:58;;;;;;;4.97;3.50;;;12.50;99.90;;;;;;5119213;27;20576;-41
2023/10/24 06:40:24;;;;;;;3.80;3.00;;;12.50;99.90;;;;;;5136628;27;20243;-40
2023/10/24 06:42:52;;;;;;;5.23;3.80;;;12.50;99.90;;;;;;5135381;27;20220;-38
2023/10/24 06:45:18;;;;;;;9.73;3.93;;;12.50;99.90;;;;;;5133875;27;20478;-40
2023/10/24 06:47:44;;;;;;;4.53;3.43;;;12.50;99.90;;;;;;5135651;27;20723;-38
2023/10/24 06:50:10;;;;;;;5.83;4.03;;;12.50;99.90;;;;;;5117405;27;20183;-45
2023/10/24 06:52:36;;;;;;;4.20;3.73;;;12.50;99.90;;;;;;5135951;27;20447;-41
2023/10/24 06:55:04;;;;;;;8.93;4.63;;;12.50;99.90;;;;;;5135780;27;20412;-40
2023/10/24 06:57:30;;;;;;;3.93;3.53;;;13.90;1.00;;;;;;5136210;27;20171;-39
2023/10/24 06:59:56;;;;;;;4.17;3.77;;;13.80;1.00;;;;;;5135151;27;20439;-38
2023/10/24 07:02:21;;;;;;;4.73;4.23;;;13.60;99.90;;;;;;5134136;27;20718;-40
2023/10/24 07:04:47;;;;;;;5.60;4.50;;;13.40;99.90;;;;;;5137146;27;20171;-38
2023/10/24 07:07:13;;;;;;;5.37;3.70;;;13.30;99.90;;;;;;5136766;27;20406;-40
2023/10/24 07:09:38;;;;;;;4.43;4.03;;;13.10;78.20;;;;;;5138764;27;20183;-40
2023/10/24 07:12:04;;;;;;;5.10;4.20;;;13.00;13.90;;;;;;5138920;27;20221;-38
2023/10/24 07:14:30;;;;;;;5.60;4.60;;;13.00;18.20;;;;;;5137472;27;20172;-41
2023/10/24 07:16:55;;;;;;;8.97;5.00;;;12.90;27.70;;;;;;5134245;27;20179;-38
2023/10/24 07:19:21;;;;;;;5.40;4.30;;;12.90;61.20;;;;;;5134713;27;20171;-40
2023/10/24 07:21:47;;;;;;;10.03;4.60;;;12.80;99.90;;;;;;5135827;27;20454;-40
2023/10/24 07:24:13;;;;;;;6.93;4.87;;;12.80;99.90;;;;;;5133829;27;20549;-39
2023/10/24 07:26:39;;;;;;;6.83;4.70;;;12.80;99.90;;;;;;5132501;27;20238;-38
2023/10/24 07:29:04;;;;;;;5.57;5.00;;;12.80;99.90;;;;;;5135888;27;20743;-41
2023/10/24 07:31:30;;;;;;;7.80;5.20;;;12.80;99.90;;;;;;5135637;27;20299;-41
2023/10/24 07:33:56;;;;;;;6.83;5.17;;;12.70;99.90;;;;;;5136236;27;20599;-38
2023/10/24 07:36:21;;;;;;;6.47;4.73;;;12.70;99.90;;;;;;5136192;27;20269;-39
2023/10/24 07:38:48;;;;;;;6.13;5.00;;;12.70;99.90;;;;;;5118389;27;20566;-39
2023/10/24 07:41:14;;;;;;;8.67;5.30;;;12.70;99.90;;;;;;5136933;27;20462;-39
2023/10/24 07:43:40;;;;;;;6.83;6.13;;;12.60;99.90;;;;;;5119547;27;20463;-40
2023/10/24 07:46:05;;;;;;;9.60;5.50;;;12.60;99.90;;;;;;5137067;27;20630;-39
2023/10/24 07:48:31;;;;;;;5.23;3.67;;;12.60;99.90;;;;;;5137518;27;20262;-38
2023/10/24 07:50:57;;;;;;;4.90;3.67;;;12.60;99.90;;;;;;5118572;27;20421;-40
2023/10/24 07:53:24;;;;;;;5.70;3.87;;;12.70;99.90;;;;;;5136982;27;20182;-39
2023/10/24 07:55:51;;;;;;;5.20;3.70;;;12.60;99.90;;;;;;5136341;27;20434;-42
2023/10/24 07:58:17;;;;;;;6.10;3.60;;;12.70;99.90;;;;;;5102229;27;20478;-40
2023/10/24 08:00:46;;;;;;;5.43;3.77;;;12.70;99.90;;;;;;5119118;27;20408;-39
2023/10/24 08:03:13;;;;;;;5.40;4.40;;;12.60;99.90;;;;;;5116855;27;20274;-41
2023/10/24 08:05:39;;;;;;;5.87;4.80;;;12.70;99.90;;;;;;5136280;27;20464;-40
2023/10/24 08:08:05;;;;;;;6.17;4.80;;;12.70;99.90;;;;;;5116235;27;20420;-39
2023/10/24 08:10:34;;;;;;;8.03;3.90;;;12.70;99.90;;;;;;5134646;27;20872;-40
2023/10/24 08:13:00;;;;;;;6.90;4.73;;;12.60;99.90;;;;;;5134438;27;20836;-39
2023/10/24 08:15:27;;;;;;;7.30;4.20;;;12.70;99.90;;;;;;5134345;27;20420;-40
2023/10/24 08:17:53;;;;;;;7.50;4.40;;;12.60;99.90;;;;;;5135263;27;20424;-41
2023/10/24 08:20:20;;;;;;;6.37;5.20;;;12.60;99.90;;;;;;5134575;27;20429;-40
2023/10/24 08:22:46;;;;;;;4.87;4.47;;;12.60;99.90;;;;;;5117362;27;20545;-39
2023/10/24 08:25:12;;;;;;;5.33;4.70;;;12.60;99.90;;;;;;5135808;27;20696;-40
2023/10/24 08:27:37;;;;;;;5.27;4.77;;;12.60;99.90;;;;;;5133658;27;20420;-40
2023/10/24 08:30:04;;;;;;;9.83;5.10;;;12.60;99.90;;;;;;5133190;27;20438;-40
2023/10/24 08:32:29;;;;;;;8.20;6.70;;;12.60;99.90;;;;;;5134507;27;20183;-41
2023/10/24 08:34:55;;;;;;;10.07;7.10;;;12.50;99.90;;;;;;5135460;27;20492;-39
2023/10/24 08:37:21;;;;;;;7.27;6.57;;;12.50;99.90;;;;;;5134400;27;20178;-41
2023/10/24 08:39:48;;;;;;;7.10;6.50;;;12.50;99.90;;;;;;5118503;27;20718;-40
2023/10/24 08:42:15;;;;;;;7.30;6.40;;;12.50;99.90;;;;;;5133330;27;20453;-40
2023/10/24 08:44:41;;;;;;;7.47;6.00;;;12.40;99.90;;;;;;5098602;28;20432;-39
2023/10/24 08:47:22;;;;;;;7.77;6.80;;;12.40;99.90;;;;;;5112293;27;20982;-43
2023/10/24 08:49:48;;;;;;;8.20;6.60;;;12.40;99.90;;;;;;5133203;27;20527;-38
2023/10/24 08:52:14;;;;;;;7.37;6.57;;;12.40;99.90;;;;;;5133487;28;20171;-39
2023/10/24 08:54:40;;;;;;;8.73;6.53;;;12.50;99.90;;;;;;5133978;28;20424;-38
2023/10/24 08:57:05;;;;;;;10.30;6.83;;;12.40;99.90;;;;;;5135052;28;20258;-43
2023/10/24 08:59:35;;;;;;;9.70;6.20;;;12.50;99.90;;;;;;5117374;28;20186;-40
2023/10/24 09:02:01;;;;;;;7.30;6.50;;;12.50;99.90;;;;;;5133064;28;20171;-40
2023/10/24 09:04:29;;;;;;;8.30;7.47;;;12.50;99.90;;;;;;5133369;28;20823;-39
2023/10/24 09:06:55;;;;;;;10.70;7.60;;;12.50;1.00;;;;;;5134296;28;20463;-39
2023/10/24 09:09:23;;;;;;;8.97;7.90;;;12.60;1.00;;;;;;5134179;28;20438;-39
2023/10/24 09:12:00;;;;;;;8.93;8.00;;;12.70;1.00;;;;;;5135696;28;20184;-40
2023/10/24 09:14:28;;;;;;;8.07;7.37;;;12.70;1.00;;;;;;5136632;28;20875;-39
2023/10/24 09:16:57;;;;;;;10.23;7.80;;;12.80;1.00;;;;;;5135998;28;20428;-39
2023/10/24 09:19:22;;;;;;;11.27;7.70;;;12.90;1.00;;;;;;5117499;28;20567;-39
2023/10/24 09:21:50;;;;;;;8.20;7.27;;;13.00;1.00;;;;;;5135591;28;20416;-40
2023/10/24 09:24:17;;;;;;;7.97;6.27;;;13.00;1.00;;;;;;5135580;28;20175;-39
2023/10/24 09:26:51;;;;;;;7.40;6.53;;;13.10;1.00;;;;;;5132739;28;20561;-41
2023/10/24 09:29:18;;;;;;;6.40;5.80;;;13.20;1.00;;;;;;5135278;28;20495;-40
2023/10/24 09:31:46;;;;;;;6.80;5.77;;;13.30;1.00;;;;;;5134689;28;20422;-40
2023/10/24 09:34:12;;;;;;;6.53;5.53;;;13.30;1.00;;;;;;5133956;28;20674;-40
2023/10/24 09:36:37;;;;;;;6.07;5.50;;;13.40;1.00;;;;;;5135802;28;20417;-41
2023/10/24 09:39:03;;;;;;;9.10;6.10;;;13.40;1.00;;;;;;5116246;28;20420;-39
2023/10/24 09:41:30;;;;;;;8.60;6.60;;;13.40;1.00;;;;;;5134591;28;20232;-39
2023/10/24 09:44:01;;;;;;;13.47;9.50;;;13.40;1.00;;;;;;5133408;28;20186;-40
2023/10/24 09:46:28;;;;;;;10.80;5.97;;;13.50;1.00;;;;;;5134824;28;20476;-39
2023/10/24 09:48:55;;;;;;;5.13;3.47;;;13.50;99.90;;;;;;5134469;27;20698;-39
2023/10/24 09:51:22;;;;;;;6.83;3.30;;;13.50;99.90;;;;;;5135832;27;20852;-39
2023/10/24 09:53:48;;;;;;;4.07;2.43;;;13.50;99.90;;;;;;5136203;27;20515;-41
2023/10/24 09:56:15;;;;;;;4.20;2.80;;;13.50;1.00;;;;;;5138278;27;20496;-38
2023/10/24 09:58:42;;;;;;;4.27;2.70;;;13.40;1.00;;;;;;5119887;27;20493;-38
2023/10/24 10:01:09;;;;;;;4.87;2.67;;;13.40;1.00;;;;;;5120848;27;20427;-41
2023/10/24 10:03:35;;;;;;;5.20;3.20;;;13.40;1.00;;;;;;5138510;27;20417;-40
2023/10/24 10:06:08;;;;;;;4.10;2.77;;;13.50;1.00;;;;;;5138266;27;20468;-38
2023/10/24 10:08:37;;;;;;;3.90;2.67;;;13.50;1.00;;;;;;5137499;27;20420;-39
2023/10/24 10:11:06;;;;;;;2.47;2.27;;;13.60;1.00;;;;;;5137139;27;20726;-39
2023/10/24 10:13:37;;;;;;;3.20;2.90;;;13.60;1.00;;;;;;5137086;27;20838;-41
2023/10/24 10:16:25;;;;;;;3.00;2.70;;;13.60;1.00;;;;;;5136700;27;20703;-40
2023/10/24 10:18:59;;;;;;;3.57;2.90;;;13.70;1.00;;;;;;5118945;27;20416;-39
2023/10/24 10:21:56;;;;;;;3.30;2.80;;;13.70;1.00;;;;;;5138593;27;20791;-39
2023/10/24 10:24:37;;;;;;;2.90;2.70;;;13.80;1.00;;;;;;5137847;27;20428;-41
2023/10/24 10:27:24;;;;;;;2.87;2.30;;;13.90;1.00;;;;;;5137809;27;20468;-40
2023/10/24 10:30:14;;;;;;;3.27;2.77;;;13.90;1.00;;;;;;5117689;27;20709;-41
2023/10/24 10:33:00;;;;;;;2.70;2.50;;;13.90;1.00;;;;;;5119283;27;20509;-40
2023/10/24 10:35:49;;;;;;;2.60;2.40;;;13.90;99.90;;;;;;5137376;27;20538;-39
2023/10/24 10:38:35;;;;;;;2.10;1.90;;;13.90;99.90;;;;;;5103197;27;20823;-38
2023/10/24 10:41:23;;;;;;;3.53;2.33;;;13.90;99.90;;;;;;5135277;27;20412;-39
2023/10/24 10:43:48;;;;;;;5.17;2.60;;;13.80;99.90;;;;;;5133529;27;20413;-39
2023/10/24 10:46:18;;;;;;;6.50;3.60;;;13.80;99.90;;;;;;5133816;27;20492;-40
2023/10/24 10:48:44;;;;;;;5.27;3.00;;;13.80;99.90;;;;;;5117787;27;20435;-39
2023/10/24 10:51:17;;;;;;;7.37;2.60;;;13.70;99.90;;;;;;5135451;27;20702;-40
2023/10/24 10:54:04;;;;;;;2.70;2.10;;;13.70;99.90;;;;;;5115863;27;20447;-40
2023/10/24 10:56:31;;;;;;;3.90;2.53;;;13.60;99.90;;;;;;5134705;27;20542;-40
2023/10/24 10:59:20;;;;;;;2.83;2.57;;;13.70;99.90;;;;;;5117680;27;20886;-39
2023/10/24 11:02:29;;;;;;;5.00;3.83;;;13.70;1.00;;;;;;5135359;27;20417;-39
2023/10/24 11:04:55;;;;;;;4.80;3.03;;;13.70;99.90;;;;;;5117899;27;20980;-40
2023/10/24 11:07:50;;;;;;;2.70;2.50;;;13.70;99.90;;;;;;5135348;27;20495;-40
2023/10/24 11:10:16;;;;;;;4.50;2.87;;;13.60;99.90;;;;;;5135103;27;20420;-42
2023/10/24 11:12:49;;;;;;;5.57;3.30;;;13.70;99.90;;;;;;5135607;27;20427;-41
2023/10/24 11:15:16;;;;;;;6.03;3.07;;;13.70;99.90;;;;;;5137000;27;20417;-40
2023/10/24 11:17:43;;;;;;;3.67;3.37;;;13.70;99.90;;;;;;5137333;27;20436;-42
2023/10/24 11:20:10;;;;;;;4.73;2.70;;;13.70;99.90;;;;;;5136603;27;20428;-40
2023/10/24 11:22:36;;;;;;;4.87;2.80;;;13.60;99.90;;;;;;5135426;27;20517;-40
2023/10/24 11:25:10;;;;;;;3.00;2.53;;;13.60;1.00;;;;;;5134132;27;20795;-40
2023/10/24 11:27:36;;;;;;;3.30;2.67;;;13.50;1.00;;;;;;5115874;27;20433;-40
2023/10/24 11:30:02;;;;;;;5.50;3.27;;;13.60;1.00;;;;;;5116715;27;20686;-41
2023/10/24 11:32:28;;;;;;;3.77;3.47;;;13.60;1.00;;;;;;5134119;27;20846;-41
2023/10/24 11:34:54;;;;;;;3.60;2.97;;;13.50;1.00;;;;;;5133817;27;20255;-41
2023/10/24 11:37:20;;;;;;;3.37;3.07;;;13.50;1.00;;;;;;5132802;27;20424;-39
2023/10/24 11:39:46;;;;;;;3.10;2.70;;;13.40;1.00;;;;;;5135213;27;20446;-38
2023/10/24 11:42:12;;;;;;;3.93;2.70;;;13.30;1.00;;;;;;5133557;27;20368;-40
2023/10/24 11:44:39;;;;;;;3.93;3.43;;;13.40;1.00;;;;;;5134407;27;20197;-42
2023/10/24 11:47:05;;;;;;;3.67;3.37;;;13.40;1.00;;;;;;5132886;27;20665;-39
2023/10/24 11:49:35;;;;;;;2.27;2.07;;;13.40;1.00;;;;;;5134571;27;20517;-39
2023/10/24 11:52:01;;;;;;;2.87;2.40;;;13.30;1.00;;;;;;5132887;27;20409;-41
2023/10/24 11:54:27;;;;;;;4.37;2.80;;;13.40;1.00;;;;;;5134887;27;20539;-40
2023/10/24 11:56:56;;;;;;;2.57;2.37;;;13.40;1.00;;;;;;5133574;27;20901;-41
2023/10/24 11:59:22;;;;;;;3.40;2.80;;;13.50;1.00;;;;;;5131702;27;20443;-40
2023/10/24 12:01:48;;;;;;;3.47;2.57;;;13.40;1.00;;;;;;5132161;27;20425;-40
2023/10/24 12:04:13;;;;;;;3.77;2.70;;;13.40;1.00;;;;;;5112915;27;20449;-39
2023/10/24 12:06:40;;;;;;;2.60;2.40;;;13.50;1.00;;;;;;5132395;27;20509;-42
2023/10/24 12:09:06;;;;;;;3.20;2.70;;;13.60;1.00;;;;;;5114777;27;20183;-42
2023/10/24 12:11:35;;;;;;;2.77;2.47;;;13.50;1.00;;;;;;5133243;27;20446;-40
2023/10/24 12:14:01;;;;;;;3.73;2.13;;;13.60;1.00;;;;;;5132538;27;20425;-39
2023/10/24 12:16:31;;;;;;;2.77;2.27;;;13.60;1.00;;;;;;5133869;27;20488;-40
2023/10/24 12:18:57;;;;;;;2.27;2.07;;;13.70;99.90;;;;;;5135012;27;20413;-41
2023/10/24 12:21:23;;;;;;;2.50;2.30;;;13.70;99.90;;;;;;5116685;27;20431;-39
2023/10/24 12:23:49;;;;;;;2.13;1.90;;;13.70;99.90;;;;;;5132621;27;20300;-39
2023/10/24 12:26:15;;;;;;;2.67;2.13;;;13.70;99.90;;;;;;5133675;27;20677;-41
2023/10/24 12:28:43;;;;;;;3.67;2.13;;;13.70;99.90;;;;;;5135292;27;20603;-42
2023/10/24 12:31:10;;;;;;;2.33;1.63;;;13.80;99.90;;;;;;5136061;27;20545;-41
2023/10/24 12:33:36;;;;;;;2.80;2.50;;;13.90;99.90;;;;;;5136847;27;20419;-39
2023/10/24 12:36:02;;;;;;;6.43;2.50;;;13.90;99.90;;;;;;5136207;27;20539;-40
2023/10/24 12:38:28;;;;;;;3.30;1.90;;;13.90;99.90;;;;;;5116724;27;20213;-40
2023/10/24 12:40:54;;;;;;;3.87;2.83;;;14.00;99.90;;;;;;5134271;27;20474;-39
2023/10/24 12:43:20;;;;;;;2.80;2.53;;;14.00;99.90;;;;;;5134291;27;20459;-39
2023/10/24 12:45:46;;;;;;;4.37;2.57;;;14.00;99.90;;;;;;5133284;27;20545;-38
2023/10/24 12:48:13;;;;;;;3.00;2.70;;;14.10;99.90;;;;;;5134482;27;20179;-40